XAHHH SAAR-SAEZ
Flight info
| Callsign | XAHHH |
|---|---|
| Flight time | N/A |
| Altitude | 23000 |
| Route | VASAL2C VASAL W20 MULTA W24 SNT SNT7U |
| Aircraft | P180/L-SBDFGM3RWXY/LB1 |
Departure
| Time | 2026-04-23 22:08 |
|---|---|
| Airport | Rosario Islas Malvinas International Airport (SAAR) |
Arrival
| Time | N/A |
|---|---|
| Airport | Ezeiza International Airport - Ministro Pistarini (SAEZ) |
| Time | Latitude | Longitude | Altitude | Speed | Heading |
|---|---|---|---|---|---|
| 2026-04-23 21:58 | -32.91690 | -60.78117 | 89 ft | 0 kts | 110° |
| 2026-04-23 22:04 | -32.91690 | -60.78118 | 89 ft | 0 kts | 110° |
| 2026-04-23 22:05 | -32.91685 | -60.78124 | 91 ft | 2 kts | 187° |
| 2026-04-23 22:05 | -32.91678 | -60.78122 | 90 ft | 1 kts | 256° |
| 2026-04-23 22:05 | -32.91679 | -60.78124 | 90 ft | 0 kts | 256° |
| 2026-04-23 22:06 | -32.91691 | -60.78155 | 89 ft | 14 kts | 241° |
| 2026-04-23 22:06 | -32.91753 | -60.78323 | 91 ft | 27 kts | 251° |
| 2026-04-23 22:06 | -32.91784 | -60.78586 | 89 ft | 34 kts | 292° |
| 2026-04-23 22:06 | -32.91623 | -60.78754 | 88 ft | 25 kts | 356° |
| 2026-04-23 22:07 | -32.91583 | -60.78744 | 90 ft | 0 kts | 12° |
| 2026-04-23 22:08 | -32.91512 | -60.78726 | 90 ft | 58 kts | 12° |
| 2026-04-23 22:08 | -32.90684 | -60.78543 | 175 ft | 169 kts | 11° |
| 2026-04-23 22:08 | -32.89357 | -60.78254 | 572 ft | 213 kts | 11° |
| 2026-04-23 22:08 | -32.87809 | -60.77867 | 1440 ft | 223 kts | 20° |
| 2026-04-23 22:09 | -32.86356 | -60.77392 | 3003 ft | 212 kts | 14° |
| 2026-04-23 22:09 | -32.84920 | -60.77188 | 4463 ft | 213 kts | 6° |
| 2026-04-23 22:09 | -32.83119 | -60.76533 | 5074 ft | 258 kts | 30° |
| 2026-04-23 22:09 | -32.81969 | -60.75332 | 5009 ft | 261 kts | 51° |
| 2026-04-23 22:10 | -32.81176 | -60.73534 | 5010 ft | 232 kts | 72° |
| 2026-04-23 22:10 | -32.80988 | -60.71733 | 5138 ft | 207 kts | 91° |
| 2026-04-23 22:10 | -32.81234 | -60.70163 | 5354 ft | 188 kts | 108° |
| 2026-04-23 22:10 | -32.81848 | -60.68791 | 6163 ft | 184 kts | 124° |
| 2026-04-23 22:11 | -32.82730 | -60.67689 | 6700 ft | 186 kts | 140° |
| 2026-04-23 22:11 | -32.83476 | -60.67122 | 6869 ft | 194 kts | 152° |
| 2026-04-23 22:11 | -32.85167 | -60.66438 | 7391 ft | 193 kts | 163° |
| 2026-04-23 22:11 | -32.86467 | -60.65978 | 7752 ft | 195 kts | 162° |
| 2026-04-23 22:12 | -32.87758 | -60.65505 | 8109 ft | 195 kts | 162° |
| 2026-04-23 22:12 | -32.89080 | -60.65018 | 8605 ft | 199 kts | 162° |
| 2026-04-23 22:12 | -32.90390 | -60.64537 | 9515 ft | 196 kts | 162° |
| 2026-04-23 22:12 | -32.91708 | -60.64042 | 10240 ft | 200 kts | 162° |
| 2026-04-23 22:13 | -32.93048 | -60.63534 | 10910 ft | 203 kts | 163° |
| 2026-04-23 22:13 | -32.94403 | -60.63022 | 11585 ft | 205 kts | 163° |
| 2026-04-23 22:13 | -32.95754 | -60.62512 | 12234 ft | 207 kts | 164° |
| 2026-04-23 22:13 | -32.97137 | -60.61991 | 12868 ft | 209 kts | 165° |
| 2026-04-23 22:14 | -32.98533 | -60.61465 | 13496 ft | 211 kts | 165° |
| 2026-04-23 22:14 | -32.99944 | -60.60934 | 14079 ft | 213 kts | 166° |
| 2026-04-23 22:14 | -33.01356 | -60.60401 | 14581 ft | 216 kts | 166° |
| 2026-04-23 22:14 | -33.02804 | -60.59856 | 15072 ft | 219 kts | 167° |
| 2026-04-23 22:15 | -33.04274 | -60.59302 | 15566 ft | 222 kts | 167° |
| 2026-04-23 22:15 | -33.05745 | -60.58747 | 16042 ft | 225 kts | 167° |
| 2026-04-23 22:15 | -33.07252 | -60.58179 | 16511 ft | 227 kts | 168° |
| 2026-04-23 22:15 | -33.08774 | -60.57605 | 16969 ft | 230 kts | 168° |
| 2026-04-23 22:16 | -33.10315 | -60.57023 | 17423 ft | 233 kts | 168° |
| 2026-04-23 22:16 | -33.11857 | -60.56442 | 18186 ft | 235 kts | 168° |
| 2026-04-23 22:16 | -33.13428 | -60.55847 | 18882 ft | 238 kts | 169° |
| 2026-04-23 22:16 | -33.14500 | -60.55443 | 19125 ft | 242 kts | 169° |
| 2026-04-23 22:17 | -33.16666 | -60.54626 | 19639 ft | 247 kts | 169° |
| 2026-04-23 22:17 | -33.18311 | -60.54002 | 20046 ft | 249 kts | 169° |
| 2026-04-23 22:17 | -33.19973 | -60.53373 | 20448 ft | 252 kts | 170° |
| 2026-04-23 22:17 | -33.21656 | -60.52736 | 20855 ft | 255 kts | 170° |
| 2026-04-23 22:18 | -33.23338 | -60.52100 | 21322 ft | 254 kts | 171° |
| 2026-04-23 22:18 | -33.25005 | -60.51463 | 21948 ft | 248 kts | 171° |
| 2026-04-23 22:18 | -33.26631 | -60.50843 | 22600 ft | 241 kts | 173° |
| 2026-04-23 22:18 | -33.28210 | -60.50250 | 23080 ft | 244 kts | 173° |
| 2026-04-23 22:19 | -33.29910 | -60.49629 | 23132 ft | 266 kts | 173° |
| 2026-04-23 22:19 | -33.31754 | -60.48942 | 23146 ft | 287 kts | 171° |
| 2026-04-23 22:19 | -33.33695 | -60.48172 | 23145 ft | 308 kts | 166° |
| 2026-04-23 22:19 | -33.35661 | -60.46931 | 23146 ft | 329 kts | 156° |
| 2026-04-23 22:20 | -33.37656 | -60.45455 | 23143 ft | 342 kts | 154° |
| 2026-04-23 22:20 | -33.39718 | -60.43943 | 23148 ft | 351 kts | 155° |
| 2026-04-23 22:20 | -33.41137 | -60.42953 | 23144 ft | 357 kts | 156° |
| 2026-04-23 22:20 | -33.44040 | -60.40977 | 23143 ft | 366 kts | 156° |
| 2026-04-23 22:21 | -33.46270 | -60.39430 | 23153 ft | 372 kts | 155° |
| 2026-04-23 22:21 | -33.48513 | -60.37841 | 23147 ft | 377 kts | 155° |
| 2026-04-23 22:21 | -33.50787 | -60.36230 | 23147 ft | 380 kts | 155° |
| 2026-04-23 22:21 | -33.53058 | -60.34640 | 23147 ft | 383 kts | 155° |
| 2026-04-23 22:22 | -33.55378 | -60.33025 | 23146 ft | 385 kts | 155° |
| 2026-04-23 22:22 | -33.56923 | -60.31947 | 23147 ft | 386 kts | 155° |
| 2026-04-23 22:22 | -33.60014 | -60.29778 | 23146 ft | 388 kts | 155° |
| 2026-04-23 22:22 | -33.62355 | -60.28131 | 23147 ft | 389 kts | 155° |
| 2026-04-23 22:23 | -33.64717 | -60.26474 | 23147 ft | 390 kts | 155° |
| 2026-04-23 22:23 | -33.67036 | -60.24847 | 23144 ft | 391 kts | 155° |
| 2026-04-23 22:23 | -33.69393 | -60.23193 | 23144 ft | 392 kts | 155° |
| 2026-04-23 22:23 | -33.71746 | -60.21541 | 23145 ft | 392 kts | 155° |
| 2026-04-23 22:24 | -33.74106 | -60.19885 | 23145 ft | 392 kts | 155° |
| 2026-04-23 22:24 | -33.76449 | -60.18240 | 23145 ft | 392 kts | 155° |
| 2026-04-23 22:24 | -33.78819 | -60.16575 | 23138 ft | 392 kts | 155° |
| 2026-04-23 22:24 | -33.81179 | -60.14915 | 23138 ft | 392 kts | 155° |
| 2026-04-23 22:25 | -33.83473 | -60.13182 | 23131 ft | 397 kts | 148° |
| 2026-04-23 22:25 | -33.85361 | -60.10704 | 23131 ft | 405 kts | 128° |
| 2026-04-23 22:25 | -33.86911 | -60.07845 | 23133 ft | 406 kts | 124° |
| 2026-04-23 22:25 | -33.88386 | -60.04972 | 23139 ft | 406 kts | 124° |
| 2026-04-23 22:26 | -33.89947 | -60.02130 | 23137 ft | 405 kts | 127° |
| 2026-04-23 22:26 | -33.91579 | -59.99348 | 23136 ft | 405 kts | 128° |
| 2026-04-23 22:26 | -33.93178 | -59.96599 | 23138 ft | 405 kts | 127° |
| 2026-04-23 22:26 | -33.94753 | -59.93775 | 23136 ft | 406 kts | 126° |
| 2026-04-23 22:27 | -33.96303 | -59.90930 | 23137 ft | 406 kts | 126° |
| 2026-04-23 22:27 | -33.97864 | -59.88090 | 23130 ft | 406 kts | 127° |
| 2026-04-23 22:27 | -33.99441 | -59.85272 | 23133 ft | 405 kts | 127° |
| 2026-04-23 22:27 | -34.00496 | -59.83400 | 23142 ft | 405 kts | 127° |
| 2026-04-23 22:28 | -34.02584 | -59.79664 | 23143 ft | 405 kts | 127° |
| 2026-04-23 22:28 | -34.04149 | -59.76832 | 23143 ft | 405 kts | 127° |